createdAt,value
2018-01-28T00:01:15.975Z,-0.13
2018-01-28T00:03:43.845Z,-0.15
2018-01-28T00:06:11.766Z,-0.12
2018-01-28T00:08:39.615Z,-0.07
2018-01-28T00:11:07.466Z,-0.12
2018-01-28T00:13:35.420Z,-0.19
2018-01-28T00:16:04.172Z,-0.24
2018-01-28T00:18:32.082Z,-0.34
2018-01-28T00:21:00.259Z,-0.35
2018-01-28T00:23:28.109Z,-0.38
2018-01-28T00:25:55.990Z,-0.38
2018-01-28T00:28:23.903Z,-0.38
2018-01-28T00:30:51.766Z,-0.44
2018-01-28T00:33:19.631Z,-0.47
2018-01-28T00:35:47.530Z,-0.49
2018-01-28T00:38:15.378Z,-0.52
2018-01-28T00:40:43.252Z,-0.50
2018-01-28T00:43:12.031Z,-0.49
2018-01-28T00:45:39.875Z,-0.52
2018-01-28T00:48:07.745Z,-0.54
2018-01-28T00:50:35.678Z,-0.58
2018-01-28T00:53:03.535Z,-0.60
2018-01-28T00:55:31.389Z,-0.57
2018-01-28T00:57:59.301Z,-0.55
2018-01-28T01:00:27.169Z,-0.60
2018-01-28T01:02:55.047Z,-0.58
2018-01-28T01:05:22.955Z,-0.55
2018-01-28T01:07:50.801Z,-0.48
2018-01-28T01:10:18.674Z,-0.42
2018-01-28T01:12:46.878Z,-0.36
2018-01-28T01:15:14.728Z,-0.34
2018-01-28T01:17:42.738Z,-0.37
2018-01-28T01:20:10.655Z,-0.45
2018-01-28T01:22:38.516Z,-0.49
2018-01-28T01:25:06.388Z,-0.51
2018-01-28T01:27:34.334Z,-0.55
2018-01-28T01:30:02.226Z,-0.57
2018-01-28T01:32:30.080Z,-0.53
2018-01-28T01:34:57.984Z,-0.48
2018-01-28T01:37:25.870Z,-0.46
2018-01-28T01:39:53.758Z,-0.43
2018-01-28T01:42:21.676Z,-0.38
2018-01-28T01:44:49.534Z,-0.35
2018-01-28T01:47:17.391Z,-0.33
2018-01-28T01:49:45.329Z,-0.34
2018-01-28T01:52:13.171Z,-0.36
2018-01-28T01:54:41.025Z,-0.39
2018-01-28T01:57:08.907Z,-0.38
2018-01-28T01:59:36.869Z,-0.41
2018-01-28T02:02:04.739Z,-0.49
2018-01-28T02:04:32.876Z,-0.49
2018-01-28T02:07:00.727Z,-0.51
2018-01-28T02:09:28.576Z,-0.53
2018-01-28T02:11:56.515Z,-0.56
2018-01-28T02:14:24.379Z,-0.55
2018-01-28T02:16:52.296Z,-0.50
2018-01-28T02:19:20.326Z,-0.55
2018-01-28T02:21:48.184Z,-0.59
2018-01-28T02:24:16.038Z,-0.61
2018-01-28T02:26:43.952Z,-0.57
2018-01-28T02:29:11.806Z,-0.58
2018-01-28T02:31:39.637Z,-0.58
2018-01-28T02:34:07.546Z,-0.60
2018-01-28T02:36:35.423Z,-0.59
2018-01-28T02:39:03.340Z,-0.61
2018-01-28T02:41:31.643Z,-0.62
2018-01-28T02:43:59.503Z,-0.60
2018-01-28T02:46:27.387Z,-0.60
2018-01-28T02:48:55.290Z,-0.59
2018-01-28T02:51:23.149Z,-0.56
2018-01-28T02:53:51.022Z,-0.55
2018-01-28T02:56:18.962Z,-0.62
2018-01-28T02:58:46.811Z,-0.62
2018-01-28T03:01:14.690Z,-0.61
2018-01-28T03:03:42.671Z,-0.60
2018-01-28T03:06:10.566Z,-0.59
2018-01-28T03:08:38.438Z,-0.55
2018-01-28T03:11:06.364Z,-0.52
2018-01-28T03:13:34.219Z,-0.53
2018-01-28T03:16:02.099Z,-0.61
2018-01-28T03:18:30.275Z,-0.66
2018-01-28T03:20:58.650Z,-0.71
2018-01-28T03:23:27.350Z,-0.74
2018-01-28T03:25:55.314Z,-0.76
2018-01-28T03:28:23.858Z,-0.81
2018-01-28T03:30:52.190Z,-0.89
2018-01-28T03:33:20.187Z,-0.98
2018-01-28T03:35:48.068Z,-1.00
2018-01-28T03:38:15.990Z,-1.03
2018-01-28T03:40:43.909Z,-1.04
2018-01-28T03:43:11.781Z,-1.03
2018-01-28T03:45:39.647Z,-0.99
2018-01-28T03:48:07.591Z,-0.93
2018-01-28T03:50:35.454Z,-0.95
2018-01-28T03:53:03.322Z,-0.92
2018-01-28T03:55:31.526Z,-0.91
2018-01-28T03:57:59.396Z,-0.89
2018-01-28T04:00:27.254Z,-0.93
2018-01-28T04:02:55.191Z,-1.00
2018-01-28T04:05:23.080Z,-1.03
2018-01-28T04:07:50.956Z,-1.05
2018-01-28T04:10:18.851Z,-1.06
2018-01-28T04:12:46.746Z,-1.11
2018-01-28T04:15:14.697Z,-1.20
2018-01-28T04:17:42.635Z,-1.26
2018-01-28T04:20:10.506Z,-1.20
2018-01-28T04:22:38.690Z,-1.21
2018-01-28T04:25:06.642Z,-1.26
2018-01-28T04:27:34.523Z,-1.29
2018-01-28T04:30:02.387Z,-1.28
2018-01-28T04:32:30.295Z,-1.23
2018-01-28T04:34:58.172Z,-1.23
2018-01-28T04:37:26.049Z,-1.21
2018-01-28T04:39:54.364Z,-1.16
2018-01-28T04:42:22.295Z,-1.19
2018-01-28T04:44:50.151Z,-1.20
2018-01-28T04:47:18.084Z,-1.20
2018-01-28T04:49:45.995Z,-1.21
2018-01-28T04:52:13.867Z,-1.23
2018-01-28T04:54:41.814Z,-1.24
2018-01-28T04:57:09.706Z,-1.26
2018-01-28T04:59:38.390Z,-1.27
2018-01-28T05:02:07.329Z,-1.26
2018-01-28T05:04:35.248Z,-1.27
2018-01-28T05:07:03.168Z,-1.27
2018-01-28T05:09:31.140Z,-1.28
2018-01-28T05:11:59.042Z,-1.30
2018-01-28T05:14:26.923Z,-1.33
2018-01-28T05:16:55.039Z,-1.38
2018-01-28T05:19:22.958Z,-1.37
2018-01-28T05:21:50.927Z,-1.42
2018-01-28T05:24:21.855Z,-1.42
2018-01-28T05:26:49.779Z,-1.44
2018-01-28T05:29:17.635Z,-1.44
2018-01-28T05:31:45.567Z,-1.49
2018-01-28T05:34:13.418Z,-1.45
2018-01-28T05:36:41.282Z,-1.46
2018-01-28T05:39:09.212Z,-1.45
2018-01-28T05:41:37.067Z,-1.48
2018-01-28T05:44:04.938Z,-1.53
2018-01-28T05:46:32.882Z,-1.48
2018-01-28T05:49:00.737Z,-1.42
2018-01-28T05:51:28.631Z,-1.39
2018-01-28T05:53:56.554Z,-1.34
2018-01-28T05:56:24.425Z,-1.23
2018-01-28T05:58:52.278Z,-1.11
2018-01-28T06:01:20.181Z,-0.86
2018-01-28T06:03:48.046Z,-0.42
2018-01-28T06:06:15.904Z,0.08
2018-01-28T06:08:43.887Z,0.53
2018-01-28T06:11:11.775Z,0.97
2018-01-28T06:13:39.698Z,1.36
2018-01-28T06:16:07.587Z,1.73
2018-01-28T06:18:35.503Z,1.97
2018-01-28T06:21:03.378Z,2.31
2018-01-28T06:23:31.476Z,2.71
2018-01-28T06:25:59.459Z,3.15
2018-01-28T06:28:27.336Z,3.54
2018-01-28T06:30:55.230Z,4.01
2018-01-28T06:33:23.150Z,4.41
2018-01-28T06:35:51.024Z,4.81
2018-01-28T06:38:19.914Z,5.27
2018-01-28T06:40:47.766Z,5.58
2018-01-28T06:43:15.643Z,5.68
2018-01-28T06:45:43.574Z,5.55
2018-01-28T06:48:11.430Z,5.53
2018-01-28T06:50:39.292Z,5.55
2018-01-28T06:53:07.182Z,5.22
2018-01-28T06:55:35.032Z,5.30
2018-01-28T06:58:02.876Z,5.45
2018-01-28T07:00:31.012Z,5.73
2018-01-28T07:02:58.872Z,5.92
2018-01-28T07:05:26.743Z,6.00
2018-01-28T07:07:54.671Z,6.02
2018-01-28T07:10:22.521Z,6.23
2018-01-28T07:12:50.553Z,6.29
2018-01-28T07:15:18.494Z,6.41
2018-01-28T07:17:46.350Z,6.53
2018-01-28T07:20:14.291Z,6.50
2018-01-28T07:22:42.421Z,6.43
2018-01-28T07:25:10.267Z,6.56
2018-01-28T07:27:38.237Z,6.80
2018-01-28T07:30:06.551Z,6.93
2018-01-28T07:32:34.397Z,6.88
2018-01-28T07:35:02.601Z,6.94
2018-01-28T07:37:30.540Z,6.99
2018-01-28T07:39:58.379Z,7.08
2018-01-28T07:42:26.239Z,7.17
2018-01-28T07:44:54.366Z,7.24
2018-01-28T07:47:22.227Z,7.28
2018-01-28T07:49:50.087Z,6.74
2018-01-28T07:52:18.285Z,6.57
2018-01-28T07:54:46.191Z,7.00
2018-01-28T07:57:14.107Z,7.23
2018-01-28T07:59:42.049Z,7.17
2018-01-28T08:02:09.979Z,7.32
2018-01-28T08:04:37.894Z,7.14
2018-01-28T08:07:05.854Z,7.08
2018-01-28T08:09:33.786Z,6.71
2018-01-28T08:12:07.132Z,6.46
2018-01-28T08:14:36.928Z,6.26
2018-01-28T08:17:05.668Z,6.01
2018-01-28T08:19:34.093Z,5.99
2018-01-28T08:22:02.006Z,5.64
2018-01-28T08:24:29.923Z,5.52
2018-01-28T08:26:58.702Z,5.90
2018-01-28T08:29:28.299Z,6.07
2018-01-28T08:31:56.144Z,6.22
2018-01-28T08:34:24.091Z,6.07
2018-01-28T08:36:51.975Z,6.25
2018-01-28T08:39:20.360Z,6.34
2018-01-28T08:41:48.275Z,6.53
2018-01-28T08:44:16.998Z,6.72
2018-01-28T08:46:44.906Z,6.59
2018-01-28T08:49:12.815Z,6.65
2018-01-28T08:51:40.655Z,6.55
2018-01-28T08:54:08.570Z,6.57
2018-01-28T08:56:36.479Z,6.62
2018-01-28T08:59:04.325Z,6.50
2018-01-28T09:01:32.166Z,6.81
2018-01-28T09:04:00.053Z,6.84
2018-01-28T09:06:28.032Z,7.17
2018-01-28T09:08:55.933Z,7.47
2018-01-28T09:11:23.839Z,7.69
2018-01-28T09:13:51.725Z,8.00
2018-01-28T09:16:19.604Z,8.35
2018-01-28T09:18:47.535Z,9.01
2018-01-28T09:21:15.447Z,7.89
2018-01-28T09:23:43.315Z,8.62
2018-01-28T09:26:11.487Z,9.51
2018-01-28T09:28:39.352Z,9.47
2018-01-28T09:31:07.773Z,9.90
2018-01-28T09:33:35.755Z,10.33
2018-01-28T09:36:03.623Z,10.62
2018-01-28T09:38:31.522Z,10.61
2018-01-28T09:40:59.518Z,10.54
2018-01-28T09:43:27.383Z,11.18
2018-01-28T09:45:55.306Z,11.28
2018-01-28T09:48:23.219Z,11.24
2018-01-28T09:50:51.066Z,10.92
2018-01-28T09:53:18.934Z,10.50
2018-01-28T09:55:46.857Z,10.32
2018-01-28T09:58:14.711Z,9.83
2018-01-28T10:00:42.835Z,10.04
2018-01-28T10:03:11.731Z,10.30
2018-01-28T10:05:39.598Z,10.94
2018-01-28T10:08:07.438Z,11.24
2018-01-28T10:10:35.399Z,11.65
2018-01-28T10:13:03.726Z,11.74
2018-01-28T10:15:31.588Z,11.43
2018-01-28T10:17:59.500Z,11.25
2018-01-28T10:20:27.371Z,10.57
2018-01-28T10:22:55.252Z,10.81
2018-01-28T10:25:23.166Z,11.13
2018-01-28T10:27:51.053Z,11.15
2018-01-28T10:30:18.903Z,11.15
2018-01-28T10:32:46.908Z,10.92
2018-01-28T10:35:14.767Z,10.85
2018-01-28T10:37:42.622Z,10.76
2018-01-28T10:40:10.574Z,10.56
2018-01-28T10:42:38.479Z,10.79
2018-01-28T10:45:06.430Z,10.52
2018-01-28T10:47:34.671Z,10.38
2018-01-28T10:50:02.522Z,10.23
2018-01-28T10:52:30.405Z,10.31
2018-01-28T10:54:58.322Z,10.17
2018-01-28T10:57:26.186Z,10.13
2018-01-28T10:59:54.055Z,10.27
2018-01-28T11:02:22.866Z,10.50
2018-01-28T11:04:50.734Z,10.73
2018-01-28T11:07:18.607Z,10.89
2018-01-28T11:09:46.538Z,11.23
2018-01-28T11:12:14.403Z,11.61
2018-01-28T11:14:42.266Z,12.08
2018-01-28T11:17:10.201Z,12.79
2018-01-28T11:19:38.049Z,13.06
2018-01-28T11:22:05.971Z,13.53
2018-01-28T11:24:34.163Z,13.71
2018-01-28T11:27:02.034Z,14.21
2018-01-28T11:29:29.892Z,14.39
2018-01-28T11:31:57.815Z,14.95
2018-01-28T11:34:25.804Z,15.20
2018-01-28T11:36:53.674Z,14.90
2018-01-28T11:39:21.592Z,13.53
2018-01-28T11:41:49.434Z,15.06
2018-01-28T11:44:17.299Z,15.65
2018-01-28T11:46:45.276Z,15.80
2018-01-28T11:49:13.155Z,16.11
2018-01-28T11:51:41.033Z,16.76
2018-01-28T11:54:08.964Z,16.37
2018-01-28T11:56:36.944Z,15.80
2018-01-28T11:59:04.827Z,16.33
2018-01-28T12:01:32.999Z,16.05
2018-01-28T12:04:00.903Z,16.50
2018-01-28T12:06:28.769Z,16.17
2018-01-28T12:08:56.685Z,16.87
2018-01-28T12:11:24.580Z,17.30
2018-01-28T12:13:52.457Z,18.23
2018-01-28T12:16:20.360Z,17.08
2018-01-28T12:18:48.239Z,17.24
2018-01-28T12:21:16.101Z,18.42
2018-01-28T12:23:44.034Z,17.99
2018-01-28T12:26:15.167Z,18.63
2018-01-28T12:31:29.837Z,18.17
2018-01-28T12:33:57.922Z,18.17
2018-01-28T12:36:34.655Z,18.39
2018-01-28T12:39:20.084Z,17.88
2018-01-28T12:41:52.772Z,17.57
2018-01-28T12:47:05.363Z,16.92
2018-01-28T12:49:39.452Z,16.75
2018-01-28T12:52:21.968Z,17.88
2018-01-28T12:54:50.159Z,17.96
2018-01-28T12:57:19.044Z,18.01
2018-01-28T12:59:46.915Z,19.07
2018-01-28T13:02:15.083Z,18.99
2018-01-28T13:04:42.986Z,18.03
2018-01-28T13:07:10.916Z,18.17
2018-01-28T13:09:38.825Z,19.13
2018-01-28T13:12:06.720Z,18.43
2018-01-28T13:14:34.592Z,17.37
2018-01-28T13:17:02.549Z,17.57
2018-01-28T13:19:30.415Z,17.32
2018-01-28T13:21:58.292Z,16.79
2018-01-28T13:24:26.219Z,16.54
2018-01-28T13:26:54.149Z,17.07
2018-01-28T13:29:22.052Z,17.38
2018-01-28T13:31:50.012Z,17.30
2018-01-28T13:34:17.864Z,16.95
2018-01-28T13:36:46.752Z,17.06
2018-01-28T13:39:16.771Z,17.35
2018-01-28T13:41:44.622Z,16.95
2018-01-28T13:44:12.523Z,16.58
2018-01-28T13:46:40.454Z,16.55
2018-01-28T13:49:08.309Z,16.30
2018-01-28T13:51:36.154Z,16.59
2018-01-28T13:54:04.287Z,16.37
2018-01-28T13:56:32.245Z,16.62
2018-01-28T13:59:00.175Z,16.28
2018-01-28T14:01:28.100Z,15.60
2018-01-28T14:03:55.959Z,15.00
2018-01-28T14:06:23.803Z,15.00
2018-01-28T14:08:51.726Z,14.14
2018-01-28T14:11:19.646Z,13.80
2018-01-28T14:13:47.526Z,13.27
2018-01-28T14:16:15.443Z,12.32
2018-01-28T14:18:43.399Z,11.75
2018-01-28T14:21:11.255Z,11.28
2018-01-28T14:23:39.146Z,10.85
2018-01-28T14:26:07.017Z,10.45
2018-01-28T14:28:34.915Z,10.08
2018-01-28T14:31:03.635Z,9.62
2018-01-28T14:33:31.523Z,9.37
2018-01-28T14:35:59.394Z,9.22
2018-01-28T14:38:27.376Z,9.02
2018-01-28T14:40:55.241Z,8.97
2018-01-28T14:43:23.140Z,8.95
2018-01-28T14:45:51.096Z,8.78
2018-01-28T14:48:20.727Z,8.58
2018-01-28T14:50:49.624Z,8.44
2018-01-28T14:53:17.526Z,8.39
2018-01-28T14:55:45.390Z,8.35
2018-01-28T14:58:13.246Z,8.33
2018-01-28T15:00:41.563Z,8.33
2018-01-28T15:03:09.434Z,8.28
2018-01-28T15:05:37.270Z,8.19
2018-01-28T15:08:05.204Z,8.06
2018-01-28T15:10:33.111Z,7.85
2018-01-28T15:13:00.977Z,7.70
2018-01-28T15:15:28.904Z,7.47
2018-01-28T15:17:56.758Z,7.12
2018-01-28T15:20:24.646Z,6.92
2018-01-28T15:22:52.544Z,6.74
2018-01-28T15:25:21.334Z,6.54
2018-01-28T15:27:49.194Z,6.30
2018-01-28T15:30:17.456Z,6.05
2018-01-28T15:32:45.302Z,5.89
2018-01-28T15:35:13.151Z,5.78
2018-01-28T15:37:41.063Z,5.65
2018-01-28T15:40:09.078Z,5.59
2018-01-28T15:42:36.982Z,5.52
2018-01-28T15:45:04.986Z,5.35
2018-01-28T15:47:32.854Z,5.18
2018-01-28T15:50:00.795Z,5.11
2018-01-28T15:52:28.780Z,5.07
2018-01-28T15:54:56.667Z,5.00
2018-01-28T15:57:24.531Z,4.92
2018-01-28T15:59:52.463Z,4.89
2018-01-28T16:02:20.348Z,4.90
2018-01-28T16:04:48.249Z,4.80
2018-01-28T16:07:16.170Z,4.69
2018-01-28T16:09:44.022Z,4.57
2018-01-28T16:12:11.869Z,4.41
2018-01-28T16:14:39.786Z,4.33
2018-01-28T16:17:08.132Z,4.24
2018-01-28T16:19:35.988Z,4.22
2018-01-28T16:22:03.929Z,4.12
2018-01-28T16:24:31.770Z,4.04
2018-01-28T16:26:59.612Z,3.97
2018-01-28T16:29:27.567Z,3.93
2018-01-28T16:31:55.418Z,3.90
2018-01-28T16:34:23.270Z,3.92
2018-01-28T16:36:51.171Z,3.92
2018-01-28T16:39:19.028Z,3.91
2018-01-28T16:41:46.946Z,3.83
2018-01-28T16:44:14.930Z,3.74
2018-01-28T16:46:42.810Z,3.69
2018-01-28T16:49:11.947Z,3.69
2018-01-28T16:51:39.839Z,3.67
2018-01-28T16:54:07.694Z,3.62
2018-01-28T16:56:35.615Z,3.60
2018-01-28T16:59:03.526Z,3.59
2018-01-28T17:01:31.368Z,3.55
2018-01-28T17:03:59.252Z,3.53
2018-01-28T17:06:27.135Z,3.54
2018-01-28T17:08:54.994Z,3.60
2018-01-28T17:11:22.858Z,3.62
2018-01-28T17:13:50.871Z,3.57
2018-01-28T17:16:18.749Z,3.48
2018-01-28T17:18:46.609Z,3.39
2018-01-28T17:21:14.527Z,3.36
2018-01-28T17:23:42.557Z,3.30
2018-01-28T17:26:10.454Z,3.28
2018-01-28T17:28:38.671Z,3.27
2018-01-28T17:31:06.518Z,3.21
2018-01-28T17:33:34.378Z,3.11
2018-01-28T17:36:02.311Z,3.07
2018-01-28T17:38:30.171Z,3.02
2018-01-28T17:40:58.151Z,2.96
2018-01-28T17:43:26.167Z,2.88
2018-01-28T17:45:54.043Z,2.89
2018-01-28T17:48:21.915Z,2.85
2018-01-28T17:50:49.863Z,2.83
2018-01-28T17:53:17.706Z,2.79
2018-01-28T17:55:45.554Z,2.78
2018-01-28T17:58:13.470Z,2.77
2018-01-28T18:00:41.343Z,2.78
2018-01-28T18:03:09.199Z,2.78
2018-01-28T18:05:37.102Z,2.80
2018-01-28T18:08:04.979Z,2.80
2018-01-28T18:10:32.820Z,2.77
2018-01-28T18:13:00.718Z,2.74
2018-01-28T18:15:28.614Z,2.76
2018-01-28T18:17:56.458Z,2.75
2018-01-28T18:20:24.366Z,2.78
2018-01-28T18:22:52.227Z,2.77
2018-01-28T18:25:20.071Z,2.75
2018-01-28T18:27:47.979Z,2.71
2018-01-28T18:30:15.828Z,2.68
2018-01-28T18:32:43.679Z,2.68
2018-01-28T18:35:11.627Z,2.63
2018-01-28T18:37:39.495Z,2.63
2018-01-28T18:40:07.379Z,2.65
2018-01-28T18:42:35.315Z,2.63
2018-01-28T18:45:03.812Z,2.61
2018-01-28T18:47:31.731Z,2.55
2018-01-28T18:49:59.650Z,2.55
2018-01-28T18:52:27.513Z,2.52
2018-01-28T18:54:55.490Z,2.48
2018-01-28T18:57:23.401Z,2.45
2018-01-28T18:59:51.327Z,2.40
2018-01-28T19:02:19.183Z,2.34
2018-01-28T19:04:47.289Z,2.36
2018-01-28T19:07:15.138Z,2.35
2018-01-28T19:09:42.994Z,2.32
2018-01-28T19:12:12.251Z,2.30
2018-01-28T19:14:40.153Z,2.29
2018-01-28T19:17:08.067Z,2.31
2018-01-28T19:19:36.077Z,2.36
2018-01-28T19:22:04.682Z,2.45
2018-01-28T19:24:34.711Z,2.50
2018-01-28T19:27:03.133Z,2.61
2018-01-28T19:29:33.028Z,2.70
2018-01-28T19:32:01.811Z,2.81
2018-01-28T19:34:31.164Z,2.93
2018-01-28T19:37:00.784Z,2.98
2018-01-28T19:39:29.165Z,3.03
2018-01-28T19:41:57.090Z,3.00
2018-01-28T19:44:27.346Z,2.92
2018-01-28T19:46:56.727Z,2.86
2018-01-28T19:49:25.463Z,2.83
2018-01-28T19:51:54.704Z,2.87
2018-01-28T19:54:23.644Z,2.88
2018-01-28T19:56:51.575Z,2.82
2018-01-28T19:59:20.605Z,2.75
2018-01-28T20:01:48.790Z,2.68
2018-01-28T20:04:16.736Z,2.59
2018-01-28T20:06:45.180Z,2.51
2018-01-28T20:09:13.055Z,2.42
2018-01-28T20:11:40.969Z,2.40
2018-01-28T20:14:08.860Z,2.36
2018-01-28T20:16:36.734Z,2.26
2018-01-28T20:19:04.711Z,2.21
2018-01-28T20:21:32.591Z,2.19
2018-01-28T20:24:00.450Z,2.18
2018-01-28T20:26:28.368Z,2.15
2018-01-28T20:28:56.267Z,2.13
2018-01-28T20:31:24.123Z,2.16
2018-01-28T20:33:52.905Z,2.11
2018-01-28T20:36:20.794Z,2.13
2018-01-28T20:38:49.678Z,2.12
2018-01-28T20:41:17.614Z,2.05
2018-01-28T20:43:45.464Z,2.05
2018-01-28T20:46:13.444Z,2.03
2018-01-28T20:48:41.510Z,2.00
2018-01-28T20:51:09.347Z,2.00
2018-01-28T20:53:37.211Z,2.03
2018-01-28T20:56:05.147Z,2.02
2018-01-28T20:58:33.063Z,1.98
2018-01-28T21:01:00.963Z,1.96
2018-01-28T21:03:28.871Z,1.96
2018-01-28T21:05:56.730Z,1.94
2018-01-28T21:08:24.582Z,1.92
2018-01-28T21:10:52.566Z,1.89
2018-01-28T21:13:20.467Z,1.87
2018-01-28T21:15:48.319Z,1.94
2018-01-28T21:18:16.214Z,1.95
2018-01-28T21:20:44.168Z,1.97
2018-01-28T21:23:12.041Z,1.92
2018-01-28T21:25:39.954Z,1.88
2018-01-28T21:28:07.797Z,1.82
2018-01-28T21:30:35.656Z,1.81
2018-01-28T21:33:05.598Z,1.80
2018-01-28T21:35:33.453Z,1.80
2018-01-28T21:38:01.304Z,1.78
2018-01-28T21:40:29.417Z,1.80
2018-01-28T21:42:57.263Z,1.82
2018-01-28T21:45:25.123Z,1.87
2018-01-28T21:47:53.066Z,1.87
2018-01-28T21:50:21.051Z,1.89
2018-01-28T21:52:49.203Z,1.85
2018-01-28T21:55:17.139Z,1.85
2018-01-28T21:57:44.996Z,1.83
2018-01-28T22:00:12.863Z,1.86
2018-01-28T22:02:40.769Z,1.86
2018-01-28T22:05:08.635Z,1.88
2018-01-28T22:07:37.180Z,1.95
2018-01-28T22:10:05.365Z,1.99
2018-01-28T22:12:33.211Z,2.02
2018-01-28T22:15:01.061Z,2.00
2018-01-28T22:17:29.024Z,2.02
2018-01-28T22:19:56.907Z,2.03
2018-01-28T22:22:24.753Z,2.06
2018-01-28T22:24:52.678Z,2.06
2018-01-28T22:27:20.551Z,2.04
2018-01-28T22:29:48.414Z,2.05
2018-01-28T22:32:16.352Z,2.04
2018-01-28T22:34:44.231Z,2.03
2018-01-28T22:37:12.085Z,2.07
2018-01-28T22:39:39.995Z,2.10
2018-01-28T22:42:07.866Z,2.15
2018-01-28T22:44:35.730Z,2.18
2018-01-28T22:47:03.634Z,2.26
2018-01-28T22:49:31.479Z,2.31
2018-01-28T22:51:59.390Z,2.28
2018-01-28T22:54:27.328Z,2.28
2018-01-28T22:56:55.198Z,2.30
2018-01-28T22:59:23.038Z,2.33
2018-01-28T23:01:51.364Z,2.39
2018-01-28T23:04:19.206Z,2.44
2018-01-28T23:06:47.056Z,2.46
2018-01-28T23:09:14.960Z,2.45
2018-01-28T23:11:42.821Z,2.42
2018-01-28T23:14:10.671Z,2.37
2018-01-28T23:16:38.619Z,2.28
2018-01-28T23:19:06.454Z,2.21
2018-01-28T23:21:34.308Z,2.08
2018-01-28T23:24:02.230Z,2.02
2018-01-28T23:26:30.100Z,2.01
2018-01-28T23:28:57.950Z,2.05
2018-01-28T23:31:25.892Z,2.01
2018-01-28T23:33:53.744Z,1.99
2018-01-28T23:36:21.591Z,1.95
2018-01-28T23:38:49.704Z,1.93
2018-01-28T23:41:17.547Z,1.89
2018-01-28T23:43:45.397Z,1.98
2018-01-28T23:46:13.873Z,1.96
2018-01-28T23:48:41.724Z,1.99
2018-01-28T23:51:10.311Z,2.01
2018-01-28T23:53:38.378Z,2.01
2018-01-28T23:56:06.237Z,2.00
2018-01-28T23:58:34.111Z,1.99
